createdAt,value
2022-12-31T00:00:06.819Z,16.60
2022-12-31T00:00:29.672Z,16.60
2022-12-31T00:00:52.345Z,15.75
2022-12-31T00:01:16.039Z,16.05
2022-12-31T00:01:38.745Z,15.65
2022-12-31T00:02:01.814Z,16.25
2022-12-31T00:02:26.431Z,16.65
2022-12-31T00:02:49.309Z,16.80
2022-12-31T00:03:12.412Z,16.92
2022-12-31T00:03:35.285Z,16.48
2022-12-31T00:03:58.274Z,15.85
2022-12-31T00:04:21.038Z,16.45
2022-12-31T00:04:44.028Z,16.58
2022-12-31T00:05:08.573Z,16.75
2022-12-31T00:05:32.044Z,16.48
2022-12-31T00:05:54.779Z,15.85
2022-12-31T00:06:19.445Z,16.45
2022-12-31T00:06:42.232Z,14.25
2022-12-31T00:07:04.997Z,12.98
2022-12-31T00:07:27.810Z,14.15
2022-12-31T00:07:50.675Z,13.55
2022-12-31T00:08:13.468Z,12.73
2022-12-31T00:08:36.237Z,12.75
2022-12-31T00:09:00.140Z,13.20
2022-12-31T00:09:23.064Z,13.90
2022-12-31T00:09:45.765Z,14.07
2022-12-31T00:10:09.855Z,15.82
2022-12-31T00:10:39.963Z,16.15
2022-12-31T00:11:02.841Z,15.30
2022-12-31T00:11:26.261Z,14.88
2022-12-31T00:11:48.985Z,16.15
2022-12-31T00:12:11.705Z,16.00
2022-12-31T00:12:34.454Z,15.15
2022-12-31T00:12:57.128Z,15.60
2022-12-31T00:13:20.005Z,15.10
2022-12-31T00:13:43.590Z,14.32
2022-12-31T00:14:06.560Z,13.75
2022-12-31T00:14:29.399Z,14.50
2022-12-31T00:14:52.193Z,16.23
2022-12-31T00:15:15.068Z,16.48
2022-12-31T00:15:37.906Z,17.17
2022-12-31T00:16:11.745Z,16.30
2022-12-31T00:16:37.098Z,17.00
2022-12-31T00:17:00.149Z,17.38
2022-12-31T00:17:22.981Z,17.50
2022-12-31T00:17:47.241Z,17.58
2022-12-31T00:18:10.087Z,18.77
2022-12-31T00:18:32.867Z,18.25
2022-12-31T00:18:56.334Z,19.02
2022-12-31T00:19:19.201Z,19.73
2022-12-31T00:19:41.991Z,19.38
2022-12-31T00:20:05.863Z,19.45
2022-12-31T00:20:28.647Z,18.25
2022-12-31T00:20:51.379Z,18.63
2022-12-31T00:21:14.219Z,18.17
2022-12-31T00:21:38.049Z,18.35
2022-12-31T00:22:00.858Z,19.25
2022-12-31T00:22:23.630Z,20.00
2022-12-31T00:22:46.345Z,20.17
2022-12-31T00:23:09.947Z,20.30
2022-12-31T00:23:32.713Z,20.48
2022-12-31T00:23:55.566Z,20.77
2022-12-31T00:24:18.411Z,20.40
2022-12-31T00:24:41.312Z,20.33
2022-12-31T00:25:04.597Z,20.02
2022-12-31T00:25:27.390Z,19.65
2022-12-31T00:25:50.186Z,19.27
2022-12-31T00:26:14.425Z,18.42
2022-12-31T00:26:37.321Z,18.10
2022-12-31T00:27:00.116Z,18.40
2022-12-31T00:27:23.050Z,19.10
2022-12-31T00:27:45.823Z,19.67
2022-12-31T00:28:08.506Z,18.83
2022-12-31T00:28:31.350Z,19.48
2022-12-31T00:28:54.637Z,19.20
2022-12-31T00:29:17.460Z,18.65
2022-12-31T00:29:40.235Z,19.08
2022-12-31T00:30:04.953Z,19.45
2022-12-31T00:30:28.210Z,19.48
2022-12-31T00:30:51.183Z,19.02
2022-12-31T00:31:15.143Z,19.10
2022-12-31T00:31:38.461Z,19.60
2022-12-31T00:32:01.132Z,19.42
2022-12-31T00:32:27.086Z,20.33
2022-12-31T00:32:51.398Z,20.10
2022-12-31T00:33:14.140Z,18.45
2022-12-31T00:33:37.129Z,17.75
2022-12-31T00:34:01.088Z,19.13
2022-12-31T00:34:25.085Z,19.00
2022-12-31T00:34:47.860Z,18.83
2022-12-31T00:35:10.600Z,19.27
2022-12-31T00:35:34.910Z,19.52
2022-12-31T00:36:05.030Z,20.17
2022-12-31T00:36:28.927Z,19.00
2022-12-31T00:36:51.682Z,18.38
2022-12-31T00:37:14.488Z,18.42
2022-12-31T00:37:37.267Z,19.25
2022-12-31T00:38:00.151Z,19.50
2022-12-31T00:38:22.905Z,18.73
2022-12-31T00:38:46.691Z,18.33
2022-12-31T00:39:10.619Z,18.52
2022-12-31T00:39:33.420Z,18.67
2022-12-31T00:39:56.143Z,18.80
2022-12-31T00:40:18.888Z,18.63
2022-12-31T00:40:41.618Z,19.10
2022-12-31T00:41:04.469Z,18.75
2022-12-31T00:41:27.535Z,19.63
2022-12-31T00:41:50.244Z,19.25
2022-12-31T00:42:12.980Z,20.05
2022-12-31T00:42:35.735Z,19.30
2022-12-31T00:42:58.467Z,19.20
2022-12-31T00:43:21.246Z,19.67
2022-12-31T00:43:43.999Z,18.58
2022-12-31T00:44:06.741Z,19.73
2022-12-31T00:44:30.791Z,19.80
2022-12-31T00:44:53.534Z,20.73
2022-12-31T00:45:16.468Z,20.30
2022-12-31T00:45:39.271Z,19.65
2022-12-31T00:46:02.165Z,19.63
2022-12-31T00:46:25.315Z,19.00
2022-12-31T00:46:48.527Z,19.63
2022-12-31T00:47:11.266Z,20.08
2022-12-31T00:47:34.200Z,20.52
2022-12-31T00:47:58.345Z,20.15
2022-12-31T00:48:21.143Z,18.30
2022-12-31T00:48:44.035Z,19.77
2022-12-31T00:49:06.960Z,20.67
2022-12-31T00:49:29.751Z,19.92
2022-12-31T00:49:54.965Z,20.88
2022-12-31T00:50:17.844Z,20.08
2022-12-31T00:50:40.570Z,19.67
2022-12-31T00:51:04.351Z,19.95
2022-12-31T00:51:30.128Z,20.77
2022-12-31T00:51:52.846Z,20.67
2022-12-31T00:52:16.990Z,20.33
2022-12-31T00:52:39.824Z,20.48
2022-12-31T00:53:05.136Z,21.40
2022-12-31T00:53:28.084Z,20.75
2022-12-31T00:53:50.913Z,20.55
2022-12-31T00:54:13.791Z,21.58
2022-12-31T00:54:36.713Z,21.65
2022-12-31T00:54:59.497Z,22.40
2022-12-31T00:55:22.239Z,22.15
2022-12-31T00:55:45.010Z,21.70
2022-12-31T00:56:11.869Z,22.30
2022-12-31T00:56:34.664Z,21.75
2022-12-31T00:56:57.356Z,22.13
2022-12-31T00:57:20.217Z,22.08
2022-12-31T00:57:42.970Z,21.98
2022-12-31T00:58:05.671Z,23.00
2022-12-31T00:58:28.544Z,22.83
2022-12-31T00:58:53.701Z,23.63
2022-12-31T00:59:17.533Z,22.63
2022-12-31T00:59:40.221Z,23.30
2022-12-31T01:00:03.184Z,23.27
2022-12-31T01:00:25.912Z,23.38
2022-12-31T01:00:48.728Z,23.30
2022-12-31T01:01:12.172Z,23.17
2022-12-31T01:01:36.583Z,23.85
2022-12-31T01:01:59.643Z,23.95
2022-12-31T01:02:22.716Z,24.05
2022-12-31T01:02:45.695Z,23.92
2022-12-31T01:03:10.075Z,23.08
2022-12-31T01:03:32.904Z,23.40
2022-12-31T01:03:59.953Z,24.98
2022-12-31T01:04:23.740Z,24.05
2022-12-31T01:04:46.575Z,24.45
2022-12-31T01:05:09.424Z,23.75
2022-12-31T01:05:32.330Z,23.42
2022-12-31T01:05:56.442Z,23.20
2022-12-31T01:06:19.195Z,23.52
2022-12-31T01:06:42.016Z,24.27
2022-12-31T01:07:04.787Z,23.88
2022-12-31T01:07:27.577Z,23.58
2022-12-31T01:07:50.461Z,22.70
2022-12-31T01:08:13.320Z,22.63
2022-12-31T01:08:36.202Z,22.23
2022-12-31T01:08:59.076Z,22.88
2022-12-31T01:09:22.021Z,22.95
2022-12-31T01:09:44.836Z,22.77
2022-12-31T01:10:11.377Z,23.05
2022-12-31T01:10:52.995Z,23.27
2022-12-31T01:11:19.930Z,23.40
2022-12-31T01:11:42.697Z,22.90
2022-12-31T01:12:06.294Z,22.58
2022-12-31T01:12:29.009Z,20.65
2022-12-31T01:12:51.832Z,21.90
2022-12-31T01:13:14.685Z,21.83
2022-12-31T01:13:37.537Z,21.52
2022-12-31T01:14:01.298Z,21.40
2022-12-31T01:14:24.176Z,23.40
2022-12-31T01:14:46.935Z,23.42
2022-12-31T01:15:10.905Z,23.67
2022-12-31T01:15:34.694Z,23.15
2022-12-31T01:15:57.456Z,22.58
2022-12-31T01:16:21.568Z,22.95
2022-12-31T01:16:45.291Z,22.80
2022-12-31T01:17:08.298Z,22.23
2022-12-31T01:17:31.097Z,22.42
2022-12-31T01:17:53.793Z,22.83
2022-12-31T01:18:18.091Z,22.35
2022-12-31T01:18:40.885Z,21.92
2022-12-31T01:19:04.986Z,22.52
2022-12-31T01:19:28.579Z,23.13
2022-12-31T01:19:51.343Z,22.38
2022-12-31T01:20:14.193Z,22.35
2022-12-31T01:20:37.300Z,21.45
2022-12-31T01:21:01.607Z,21.85
2022-12-31T01:21:24.388Z,22.63
2022-12-31T01:21:47.255Z,22.50
2022-12-31T01:22:10.139Z,21.33
2022-12-31T01:22:32.905Z,20.48
2022-12-31T01:22:56.371Z,20.45
2022-12-31T01:23:19.059Z,21.88
2022-12-31T01:23:41.893Z,22.00
2022-12-31T01:24:05.120Z,22.30
2022-12-31T01:24:27.867Z,23.10
2022-12-31T01:24:50.680Z,24.48
2022-12-31T01:25:13.505Z,25.23
2022-12-31T01:25:36.835Z,25.15
2022-12-31T01:26:00.337Z,25.73
2022-12-31T01:26:23.132Z,26.30
2022-12-31T01:26:46.039Z,25.73
2022-12-31T01:27:08.745Z,24.98
2022-12-31T01:27:31.435Z,24.00
2022-12-31T01:27:54.778Z,24.20
2022-12-31T01:28:17.397Z,24.23
2022-12-31T01:28:40.169Z,24.63
2022-12-31T01:29:03.023Z,24.70
2022-12-31T01:29:25.860Z,24.65
2022-12-31T01:29:48.656Z,25.73
2022-12-31T01:30:12.703Z,24.83
2022-12-31T01:30:38.973Z,25.38
2022-12-31T01:31:04.565Z,25.98
2022-12-31T01:31:27.522Z,24.95
2022-12-31T01:31:50.397Z,25.55
2022-12-31T01:32:13.282Z,25.38
2022-12-31T01:32:36.136Z,25.58
2022-12-31T01:32:58.973Z,24.73
2022-12-31T01:33:23.275Z,24.60
2022-12-31T01:33:45.965Z,25.02
2022-12-31T01:34:08.779Z,24.85
2022-12-31T01:34:31.661Z,26.55
2022-12-31T01:34:54.355Z,26.15
2022-12-31T01:35:19.749Z,25.42
2022-12-31T01:35:42.573Z,25.08
2022-12-31T01:36:07.092Z,24.58
2022-12-31T01:36:30.685Z,25.88
2022-12-31T01:36:53.367Z,27.17
2022-12-31T01:37:16.119Z,27.48
2022-12-31T01:37:39.181Z,27.08
2022-12-31T01:38:01.898Z,28.35
2022-12-31T01:38:24.730Z,28.40
2022-12-31T01:38:47.431Z,27.95
2022-12-31T01:39:10.886Z,28.27
2022-12-31T01:39:33.651Z,28.83
2022-12-31T01:39:56.472Z,29.02
2022-12-31T01:40:19.265Z,28.92
2022-12-31T01:40:42.059Z,29.75
2022-12-31T01:41:05.085Z,28.75
2022-12-31T01:41:28.747Z,29.23
2022-12-31T01:41:51.514Z,29.92
2022-12-31T01:42:14.375Z,29.88
2022-12-31T01:42:37.291Z,31.00
2022-12-31T01:43:00.121Z,29.17
2022-12-31T01:43:22.963Z,29.75
2022-12-31T01:43:48.507Z,29.50
2022-12-31T01:44:47.788Z,29.33
2022-12-31T01:45:11.638Z,29.27
2022-12-31T01:45:34.362Z,29.83
2022-12-31T01:45:57.154Z,30.92
2022-12-31T01:46:25.031Z,31.77
2022-12-31T01:46:48.660Z,31.38
2022-12-31T01:47:14.250Z,31.15
2022-12-31T01:47:38.267Z,32.20
2022-12-31T01:48:01.840Z,33.03
2022-12-31T01:48:26.596Z,33.60
2022-12-31T01:48:50.912Z,34.03
2022-12-31T01:49:16.238Z,32.83
2022-12-31T01:49:40.535Z,31.92
2022-12-31T01:50:07.709Z,33.70
2022-12-31T01:50:32.008Z,34.53
2022-12-31T01:50:54.803Z,35.70
2022-12-31T01:51:17.616Z,35.55
2022-12-31T01:51:40.364Z,34.42
2022-12-31T01:52:03.825Z,35.55
2022-12-31T01:52:28.654Z,35.05
2022-12-31T01:52:52.612Z,33.40
2022-12-31T01:53:15.440Z,34.42
2022-12-31T01:53:40.813Z,36.13
2022-12-31T01:54:05.791Z,36.30
2022-12-31T01:54:28.565Z,36.25
2022-12-31T01:54:53.887Z,35.42
2022-12-31T01:55:19.238Z,35.65
2022-12-31T01:55:45.159Z,36.38
2022-12-31T01:56:08.112Z,36.05
2022-12-31T01:56:31.069Z,36.38
2022-12-31T01:56:53.944Z,37.22
2022-12-31T01:57:16.673Z,37.67
2022-12-31T01:57:39.459Z,37.42
2022-12-31T01:58:06.827Z,36.75
2022-12-31T01:58:31.674Z,36.70
2022-12-31T01:58:55.724Z,36.63
2022-12-31T01:59:18.597Z,35.97
2022-12-31T01:59:41.294Z,35.15
2022-12-31T02:00:05.453Z,36.30
2022-12-31T02:00:28.253Z,36.90
2022-12-31T02:00:51.386Z,37.10
2022-12-31T02:01:14.995Z,36.97
2022-12-31T02:01:38.767Z,36.67
2022-12-31T02:02:01.936Z,36.75
2022-12-31T02:02:25.264Z,36.20
2022-12-31T02:02:48.236Z,35.10
2022-12-31T02:03:11.308Z,35.53
2022-12-31T02:03:35.854Z,34.58
2022-12-31T02:03:58.607Z,35.55
2022-12-31T02:04:22.800Z,35.65
2022-12-31T02:04:45.618Z,36.45
2022-12-31T02:05:14.293Z,35.67
2022-12-31T02:05:39.415Z,34.03
2022-12-31T02:06:05.623Z,35.15
2022-12-31T02:06:31.464Z,36.00
2022-12-31T02:06:55.479Z,35.60
2022-12-31T02:07:18.268Z,34.45
2022-12-31T02:07:41.001Z,33.47
2022-12-31T02:08:04.003Z,33.55
2022-12-31T02:08:26.683Z,33.17
2022-12-31T02:08:49.451Z,32.60
2022-12-31T02:09:12.839Z,33.38
2022-12-31T02:09:36.969Z,33.88
2022-12-31T02:09:59.678Z,33.90
2022-12-31T02:10:22.533Z,35.15
2022-12-31T02:10:45.329Z,33.88
2022-12-31T02:11:21.676Z,34.85
2022-12-31T02:11:44.371Z,34.10
2022-12-31T02:12:07.545Z,33.30
2022-12-31T02:12:30.280Z,33.42
2022-12-31T02:12:52.985Z,33.40
2022-12-31T02:13:15.728Z,32.78
2022-12-31T02:13:38.467Z,32.85
2022-12-31T02:14:03.621Z,32.33
2022-12-31T02:14:27.508Z,31.25
2022-12-31T02:14:52.022Z,32.70
2022-12-31T02:15:15.000Z,32.95
2022-12-31T02:15:44.067Z,32.65
2022-12-31T02:16:09.323Z,32.35
2022-12-31T02:16:37.011Z,31.75
2022-12-31T02:17:03.048Z,31.00
2022-12-31T02:17:29.963Z,31.65
2022-12-31T02:17:55.239Z,31.60
2022-12-31T02:18:23.109Z,32.35
2022-12-31T02:18:50.066Z,32.30
2022-12-31T02:19:41.884Z,32.22
2022-12-31T02:20:41.995Z,31.00
2022-12-31T02:21:31.366Z,31.45
2022-12-31T02:21:57.295Z,30.52
2022-12-31T02:22:24.696Z,29.70
2022-12-31T02:22:58.090Z,28.92
2022-12-31T02:24:01.009Z,29.60
2022-12-31T02:24:41.651Z,29.55
2022-12-31T02:25:18.084Z,28.40
2022-12-31T02:26:17.144Z,30.45
2022-12-31T02:26:58.132Z,29.55
2022-12-31T02:27:26.841Z,29.07
2022-12-31T02:27:56.173Z,30.33
2022-12-31T02:28:25.607Z,28.83
2022-12-31T02:29:05.027Z,28.23
2022-12-31T02:30:15.118Z,26.30
2022-12-31T02:30:39.283Z,25.80
2022-12-31T02:31:04.006Z,25.55
2022-12-31T02:31:28.865Z,25.15
2022-12-31T02:31:52.814Z,24.88
2022-12-31T02:32:17.329Z,25.15
2022-12-31T02:32:58.746Z,26.27
2022-12-31T02:33:23.273Z,25.48
2022-12-31T02:33:48.813Z,25.25
2022-12-31T02:34:13.577Z,24.35
2022-12-31T02:34:38.155Z,24.42
2022-12-31T02:35:04.150Z,24.90
2022-12-31T02:35:32.509Z,24.58
2022-12-31T02:35:56.752Z,24.20
2022-12-31T02:36:20.970Z,24.55
2022-12-31T02:36:44.649Z,23.63
2022-12-31T02:37:09.770Z,23.45
2022-12-31T02:37:32.560Z,23.13
2022-12-31T02:38:11.587Z,23.17
2022-12-31T02:38:35.926Z,22.58
2022-12-31T02:38:58.735Z,21.88
2022-12-31T02:39:21.490Z,21.77
2022-12-31T02:39:44.370Z,20.98
2022-12-31T02:40:08.705Z,20.80
2022-12-31T02:40:33.248Z,21.60
2022-12-31T02:40:56.340Z,21.70
2022-12-31T02:41:38.735Z,21.52
2022-12-31T02:42:01.779Z,21.75
2022-12-31T02:42:24.559Z,21.98
2022-12-31T02:42:53.314Z,22.17
2022-12-31T02:43:18.094Z,22.65
2022-12-31T02:43:46.723Z,21.95
2022-12-31T02:44:26.470Z,21.60
2022-12-31T02:44:49.298Z,21.25
2022-12-31T02:45:12.659Z,21.90
2022-12-31T02:45:38.978Z,21.52
2022-12-31T02:46:08.474Z,21.58
2022-12-31T02:46:33.926Z,21.98
2022-12-31T02:47:05.620Z,22.55
2022-12-31T02:47:35.059Z,23.48
2022-12-31T02:48:10.897Z,21.65
2022-12-31T02:48:39.294Z,21.88
2022-12-31T02:49:04.233Z,22.00
2022-12-31T02:49:30.917Z,22.45
2022-12-31T02:50:02.060Z,21.90
2022-12-31T02:50:32.980Z,22.40
2022-12-31T02:51:00.499Z,22.13
2022-12-31T02:51:30.899Z,22.75
2022-12-31T02:51:54.730Z,22.73
2022-12-31T02:52:20.853Z,22.77
2022-12-31T02:52:49.695Z,22.75
2022-12-31T02:53:19.368Z,23.73
2022-12-31T02:54:05.171Z,21.98
2022-12-31T02:54:31.052Z,22.20
2022-12-31T02:54:57.937Z,22.75
2022-12-31T02:55:25.122Z,23.25
2022-12-31T02:55:51.065Z,22.83
2022-12-31T02:56:16.642Z,22.33
2022-12-31T02:56:42.674Z,23.40
2022-12-31T02:57:10.349Z,23.75
2022-12-31T02:57:39.841Z,23.02
2022-12-31T02:58:07.211Z,24.17
2022-12-31T02:58:50.170Z,23.75
2022-12-31T02:59:34.098Z,23.63
2022-12-31T03:00:17.578Z,23.73
2022-12-31T03:01:01.555Z,23.02
2022-12-31T03:01:45.808Z,23.83
2022-12-31T03:02:16.918Z,24.23
2022-12-31T03:02:41.847Z,23.08
2022-12-31T03:03:04.689Z,23.63
2022-12-31T03:03:27.675Z,23.42
2022-12-31T03:04:10.371Z,23.20
2022-12-31T03:04:33.328Z,23.83
2022-12-31T03:04:56.729Z,22.63
2022-12-31T03:05:23.619Z,23.00
2022-12-31T03:05:46.438Z,22.75
2022-12-31T03:06:09.153Z,21.63
2022-12-31T03:06:31.884Z,22.33
2022-12-31T03:06:54.696Z,23.27
2022-12-31T03:07:20.459Z,23.35
2022-12-31T03:07:43.296Z,23.05
2022-12-31T03:08:06.340Z,22.45
2022-12-31T03:08:29.113Z,22.60
2022-12-31T03:09:21.152Z,22.48
2022-12-31T03:09:43.916Z,22.48
2022-12-31T03:10:08.078Z,23.33
2022-12-31T03:10:30.886Z,23.67
2022-12-31T03:10:53.688Z,22.30
2022-12-31T03:11:36.411Z,22.90
2022-12-31T03:12:18.086Z,22.25
2022-12-31T03:12:50.112Z,22.35
2022-12-31T03:13:12.810Z,22.42
2022-12-31T03:13:35.574Z,22.30
2022-12-31T03:13:58.353Z,22.67
2022-12-31T03:14:21.049Z,22.73
2022-12-31T03:14:43.925Z,23.10
2022-12-31T03:15:20.156Z,23.50
2022-12-31T03:15:44.741Z,22.67
2022-12-31T03:16:07.814Z,22.88
2022-12-31T03:16:30.610Z,22.33
2022-12-31T03:16:53.293Z,23.25
2022-12-31T03:17:16.043Z,23.67
2022-12-31T03:17:38.801Z,23.73
2022-12-31T03:18:02.892Z,23.25
2022-12-31T03:18:45.615Z,22.35
2022-12-31T03:19:34.693Z,23.85
2022-12-31T03:20:15.853Z,23.02
2022-12-31T03:20:58.401Z,22.55
2022-12-31T03:21:40.029Z,22.58
2022-12-31T03:22:21.414Z,22.55
2022-12-31T03:22:44.195Z,21.73
2022-12-31T03:23:08.534Z,22.13
2022-12-31T03:23:32.214Z,22.90
2022-12-31T03:24:13.336Z,24.35
2022-12-31T03:24:55.219Z,24.45
2022-12-31T03:25:34.617Z,24.30
2022-12-31T03:25:58.093Z,24.85
2022-12-31T03:26:20.889Z,24.67
2022-12-31T03:26:43.820Z,25.13
2022-12-31T03:27:06.469Z,23.92
2022-12-31T03:27:29.262Z,24.02
2022-12-31T03:27:52.125Z,24.00
2022-12-31T03:28:16.373Z,24.45
2022-12-31T03:28:39.729Z,25.33
2022-12-31T03:29:05.110Z,24.35
2022-12-31T03:29:27.854Z,24.42
2022-12-31T03:29:50.554Z,24.50
2022-12-31T03:30:14.693Z,25.30
2022-12-31T03:30:38.152Z,26.25
2022-12-31T03:31:02.764Z,25.58
2022-12-31T03:31:28.224Z,25.48
2022-12-31T03:31:50.984Z,25.33
2022-12-31T03:32:13.820Z,25.38
2022-12-31T03:32:36.535Z,26.02
2022-12-31T03:32:59.371Z,26.42
2022-12-31T03:33:22.099Z,26.02
2022-12-31T03:33:44.860Z,25.50
2022-12-31T03:34:07.570Z,25.85
2022-12-31T03:34:30.279Z,26.08
2022-12-31T03:34:56.183Z,25.70
2022-12-31T03:35:21.638Z,24.85
2022-12-31T03:35:45.629Z,25.45
2022-12-31T03:36:10.113Z,26.25
2022-12-31T03:36:32.813Z,25.10
2022-12-31T03:36:55.533Z,26.02
2022-12-31T03:37:18.567Z,26.15
2022-12-31T03:37:41.384Z,24.98
2022-12-31T03:38:04.524Z,24.70
2022-12-31T03:38:27.378Z,24.95
2022-12-31T03:38:52.877Z,25.20
2022-12-31T03:39:15.785Z,25.75
2022-12-31T03:39:38.599Z,25.75
2022-12-31T03:40:01.444Z,25.95
2022-12-31T03:40:25.325Z,25.52
2022-12-31T03:40:50.296Z,24.75
2022-12-31T03:41:13.124Z,24.65
2022-12-31T03:41:35.884Z,24.58
2022-12-31T03:41:58.611Z,23.90
2022-12-31T03:42:21.443Z,24.65
2022-12-31T03:42:44.201Z,23.55
2022-12-31T03:43:06.969Z,23.92
2022-12-31T03:43:29.735Z,24.65
2022-12-31T03:43:52.483Z,24.55
2022-12-31T03:44:15.247Z,25.20
2022-12-31T03:44:38.525Z,25.50
2022-12-31T03:45:01.291Z,25.25
2022-12-31T03:45:24.264Z,24.88
2022-12-31T03:45:48.820Z,24.60
2022-12-31T03:46:13.109Z,23.98
2022-12-31T03:46:35.846Z,24.27
2022-12-31T03:46:58.702Z,23.98
2022-12-31T03:47:21.470Z,23.75
2022-12-31T03:47:44.315Z,23.75
2022-12-31T03:48:07.858Z,23.20
2022-12-31T03:48:30.718Z,23.38
2022-12-31T03:48:53.474Z,23.58
2022-12-31T03:49:16.327Z,23.58
2022-12-31T03:49:39.088Z,23.92
2022-12-31T03:50:01.834Z,24.08
2022-12-31T03:50:24.684Z,23.88
2022-12-31T03:50:47.381Z,23.75
2022-12-31T03:51:10.094Z,23.30
2022-12-31T03:51:32.954Z,23.13
2022-12-31T03:51:55.642Z,22.52
2022-12-31T03:52:18.751Z,22.92
2022-12-31T03:52:41.490Z,23.50
2022-12-31T03:53:04.337Z,22.67
2022-12-31T03:53:27.549Z,23.30
2022-12-31T03:53:50.325Z,22.73
2022-12-31T03:54:13.117Z,23.55
2022-12-31T03:54:35.899Z,22.70
2022-12-31T03:54:58.686Z,22.85
2022-12-31T03:55:21.567Z,22.65
2022-12-31T03:55:44.656Z,22.70
2022-12-31T03:56:07.774Z,23.20
2022-12-31T03:56:30.539Z,22.70
2022-12-31T03:56:59.821Z,22.42
2022-12-31T03:57:22.916Z,22.30
2022-12-31T03:57:45.764Z,21.67
2022-12-31T03:58:08.525Z,22.23
2022-12-31T03:58:31.265Z,23.20
2022-12-31T03:58:54.098Z,22.05
2022-12-31T03:59:16.814Z,22.63
2022-12-31T03:59:39.627Z,22.27
2022-12-31T04:00:02.425Z,22.10
2022-12-31T04:00:25.483Z,21.38
2022-12-31T04:00:48.336Z,21.25
2022-12-31T04:01:15.542Z,21.52
2022-12-31T04:01:38.598Z,21.08
2022-12-31T04:02:01.853Z,22.20
2022-12-31T04:02:28.945Z,21.38
2022-12-31T04:02:52.434Z,23.52
2022-12-31T04:03:15.329Z,23.52
2022-12-31T04:03:38.152Z,23.65
2022-12-31T04:04:00.826Z,24.20
2022-12-31T04:04:23.548Z,23.50
2022-12-31T04:04:46.265Z,23.75
2022-12-31T04:05:09.366Z,23.92
2022-12-31T04:05:32.681Z,24.40
2022-12-31T04:05:55.643Z,24.13
2022-12-31T04:06:18.457Z,24.27
2022-12-31T04:06:41.273Z,23.83
2022-12-31T04:07:04.169Z,24.33
2022-12-31T04:07:26.991Z,24.05
2022-12-31T04:07:49.769Z,24.15
2022-12-31T04:08:12.730Z,23.58
2022-12-31T04:08:35.458Z,24.58
2022-12-31T04:08:58.175Z,23.75
2022-12-31T04:09:20.856Z,24.33
2022-12-31T04:09:43.624Z,24.40
2022-12-31T04:10:07.817Z,23.77
2022-12-31T04:10:30.607Z,23.00
2022-12-31T04:10:53.338Z,23.83
2022-12-31T04:11:20.833Z,23.17
2022-12-31T04:11:44.484Z,23.98
2022-12-31T04:12:07.580Z,23.98
2022-12-31T04:12:30.281Z,23.63
2022-12-31T04:12:53.019Z,23.73
2022-12-31T04:13:15.745Z,23.30
2022-12-31T04:13:38.503Z,22.73
2022-12-31T04:14:01.310Z,23.83
2022-12-31T04:14:24.045Z,23.60
2022-12-31T04:14:46.841Z,23.95
2022-12-31T04:15:11.541Z,25.08
2022-12-31T04:15:34.322Z,23.77
2022-12-31T04:15:57.126Z,24.23
2022-12-31T04:16:21.308Z,24.45
2022-12-31T04:16:45.171Z,23.00
2022-12-31T04:17:07.913Z,24.20
2022-12-31T04:17:30.667Z,23.42
2022-12-31T04:17:53.481Z,23.25
2022-12-31T04:18:16.244Z,24.98
2022-12-31T04:18:38.973Z,24.67
2022-12-31T04:19:01.762Z,23.90
2022-12-31T04:19:24.623Z,24.85
2022-12-31T04:19:47.691Z,24.95
2022-12-31T04:20:11.377Z,24.70
2022-12-31T04:20:34.181Z,24.63
2022-12-31T04:21:01.949Z,23.92
2022-12-31T04:21:33.099Z,23.83
2022-12-31T04:22:00.282Z,24.40
2022-12-31T04:22:23.049Z,23.77
2022-12-31T04:22:45.910Z,24.23
2022-12-31T04:23:08.687Z,24.15
2022-12-31T04:23:31.520Z,23.95
2022-12-31T04:23:54.343Z,23.98
2022-12-31T04:24:17.136Z,24.20
2022-12-31T04:24:40.177Z,23.95
2022-12-31T04:25:05.293Z,24.08
2022-12-31T04:25:28.190Z,24.42
2022-12-31T04:25:50.889Z,24.35
2022-12-31T04:26:13.656Z,24.08
2022-12-31T04:26:36.644Z,24.02
2022-12-31T04:27:05.371Z,23.25
2022-12-31T04:27:30.515Z,23.23
2022-12-31T04:27:53.274Z,23.05
2022-12-31T04:28:16.024Z,22.52
2022-12-31T04:28:38.887Z,22.77
2022-12-31T04:29:01.610Z,23.55
2022-12-31T04:29:24.466Z,22.05
2022-12-31T04:29:47.259Z,23.50
2022-12-31T04:30:12.668Z,23.67
2022-12-31T04:30:35.461Z,23.48
2022-12-31T04:30:58.235Z,23.70
2022-12-31T04:31:22.542Z,23.27
2022-12-31T04:31:45.800Z,23.50
2022-12-31T04:32:08.785Z,23.55
2022-12-31T04:32:31.522Z,23.00
2022-12-31T04:32:54.280Z,22.83
2022-12-31T04:33:17.015Z,23.15
2022-12-31T04:33:39.697Z,23.13
2022-12-31T04:34:02.512Z,22.42
2022-12-31T04:34:25.290Z,22.88
2022-12-31T04:34:48.066Z,23.05
2022-12-31T04:35:11.243Z,23.17
2022-12-31T04:35:34.015Z,23.25
2022-12-31T04:36:01.170Z,23.27
2022-12-31T04:36:23.862Z,24.25
2022-12-31T04:36:46.631Z,22.95
2022-12-31T04:37:09.395Z,23.15
2022-12-31T04:37:32.140Z,22.38
2022-12-31T04:37:54.971Z,22.40
2022-12-31T04:38:17.764Z,22.42
2022-12-31T04:38:40.484Z,21.90
2022-12-31T04:39:03.326Z,21.90
2022-12-31T04:39:26.288Z,22.30
2022-12-31T04:39:49.070Z,22.02
2022-12-31T04:40:12.385Z,20.95
2022-12-31T04:40:35.416Z,21.63
2022-12-31T04:41:16.533Z,22.23
2022-12-31T04:41:39.372Z,22.08
2022-12-31T04:42:02.096Z,21.60
2022-12-31T04:42:24.908Z,22.02
2022-12-31T04:42:47.685Z,21.83
2022-12-31T04:43:10.523Z,20.90
2022-12-31T04:43:33.300Z,20.63
2022-12-31T04:43:57.170Z,21.08
2022-12-31T04:44:20.096Z,21.20
2022-12-31T04:44:42.874Z,21.67
2022-12-31T04:45:07.566Z,21.15
2022-12-31T04:45:30.357Z,21.73
2022-12-31T04:45:53.197Z,20.30
2022-12-31T04:46:16.366Z,21.42
2022-12-31T04:46:40.818Z,20.98
2022-12-31T04:47:03.695Z,20.73
2022-12-31T04:47:26.403Z,21.17
2022-12-31T04:47:49.303Z,21.45
2022-12-31T04:48:12.024Z,21.63
2022-12-31T04:48:34.761Z,22.45
2022-12-31T04:48:57.608Z,21.85
2022-12-31T04:49:21.466Z,21.80
2022-12-31T04:49:44.190Z,21.85
2022-12-31T04:50:07.903Z,21.88
2022-12-31T04:50:30.651Z,21.70
2022-12-31T04:50:53.372Z,21.35
2022-12-31T04:51:16.080Z,21.00
2022-12-31T04:51:39.005Z,21.88
2022-12-31T04:52:02.001Z,21.48
2022-12-31T04:52:24.708Z,21.70
2022-12-31T04:52:47.553Z,21.58
2022-12-31T04:53:10.299Z,21.52
2022-12-31T04:53:33.046Z,20.92
2022-12-31T04:53:55.710Z,20.90
2022-12-31T04:54:18.502Z,21.48
2022-12-31T04:54:41.309Z,21.35
2022-12-31T04:55:04.558Z,21.33
2022-12-31T04:55:27.276Z,21.42
2022-12-31T04:55:50.000Z,20.70
2022-12-31T04:56:12.852Z,20.58
2022-12-31T04:56:36.820Z,20.27
2022-12-31T04:56:59.794Z,21.30
2022-12-31T04:57:23.032Z,20.90
2022-12-31T04:57:45.790Z,20.77
2022-12-31T04:58:08.689Z,20.95
2022-12-31T04:58:31.530Z,21.33
2022-12-31T04:58:54.255Z,20.70
2022-12-31T04:59:16.976Z,20.30
2022-12-31T04:59:39.714Z,20.08
2022-12-31T05:00:02.447Z,19.83
2022-12-31T05:00:25.196Z,19.95
2022-12-31T05:00:50.183Z,20.75
2022-12-31T05:01:13.514Z,20.40
2022-12-31T05:01:37.576Z,20.17
2022-12-31T05:02:02.222Z,19.98
2022-12-31T05:02:25.387Z,20.08
2022-12-31T05:02:48.492Z,19.30
2022-12-31T05:03:11.427Z,19.50
2022-12-31T05:03:34.468Z,19.40
2022-12-31T05:03:57.296Z,19.52
2022-12-31T05:04:20.324Z,19.88
2022-12-31T05:04:44.146Z,19.45
2022-12-31T05:05:07.823Z,19.83
2022-12-31T05:05:30.571Z,19.92
2022-12-31T05:05:53.336Z,19.38
2022-12-31T05:06:18.359Z,18.85
2022-12-31T05:06:41.120Z,18.70
2022-12-31T05:07:03.865Z,19.00
2022-12-31T05:07:29.740Z,19.60
2022-12-31T05:07:52.554Z,18.02
2022-12-31T05:08:15.301Z,17.90
2022-12-31T05:08:38.031Z,17.67
2022-12-31T05:09:00.747Z,17.50
2022-12-31T05:09:24.623Z,17.83
2022-12-31T05:09:47.374Z,17.15
2022-12-31T05:10:11.119Z,16.92
2022-12-31T05:10:33.833Z,17.88
2022-12-31T05:10:56.555Z,17.58
2022-12-31T05:11:19.382Z,17.23
2022-12-31T05:11:42.177Z,16.75
2022-12-31T05:12:05.582Z,16.75
2022-12-31T05:12:28.225Z,17.00
2022-12-31T05:12:51.053Z,16.38
2022-12-31T05:13:13.857Z,16.30
2022-12-31T05:13:36.730Z,17.15
2022-12-31T05:14:02.322Z,17.20
2022-12-31T05:14:25.308Z,16.73
2022-12-31T05:14:51.418Z,17.08
2022-12-31T05:15:14.178Z,16.60
2022-12-31T05:15:36.911Z,16.38
2022-12-31T05:15:59.664Z,16.35
2022-12-31T05:16:22.585Z,16.20
2022-12-31T05:16:45.564Z,16.20
2022-12-31T05:17:09.750Z,16.55
2022-12-31T05:17:32.495Z,16.17
2022-12-31T05:17:55.335Z,16.70
2022-12-31T05:18:18.439Z,16.95